sensor_id;sensor_type;location;lat;lon;timestamp;P1;durP1;ratioP1;P2;durP2;ratioP2
35562;SDS011;21665;40.108;18.302;2023-09-18T04:56:27;11.48;;;10.40;;
35562;SDS011;21665;40.108;18.302;2023-09-18T04:58:53;11.73;;;10.73;;
35562;SDS011;21665;40.108;18.302;2023-09-18T05:01:20;11.75;;;10.52;;
35562;SDS011;21665;40.108;18.302;2023-09-18T05:03:48;11.80;;;10.80;;
35562;SDS011;21665;40.108;18.302;2023-09-18T05:06:15;14.55;;;11.40;;
35562;SDS011;21665;40.108;18.302;2023-09-18T05:08:42;12.73;;;11.55;;
35562;SDS011;21665;40.108;18.302;2023-09-18T05:11:10;13.35;;;12.05;;
35562;SDS011;21665;40.108;18.302;2023-09-18T05:13:36;14.93;;;13.43;;
35562;SDS011;21665;40.108;18.302;2023-09-18T05:16:03;14.68;;;13.23;;
35562;SDS011;21665;40.108;18.302;2023-09-18T05:18:29;14.50;;;13.02;;
35562;SDS011;21665;40.108;18.302;2023-09-18T05:20:56;14.35;;;13.30;;
35562;SDS011;21665;40.108;18.302;2023-09-18T05:23:22;15.60;;;14.05;;
35562;SDS011;21665;40.108;18.302;2023-09-18T05:25:48;15.75;;;14.45;;
35562;SDS011;21665;40.108;18.302;2023-09-18T05:28:15;16.88;;;15.48;;
35562;SDS011;21665;40.108;18.302;2023-09-18T05:30:41;17.40;;;15.88;;
35562;SDS011;21665;40.108;18.302;2023-09-18T05:33:08;17.55;;;16.08;;
35562;SDS011;21665;40.108;18.302;2023-09-18T05:35:35;17.88;;;16.42;;
35562;SDS011;21665;40.108;18.302;2023-09-18T05:38:10;18.88;;;17.35;;
35562;SDS011;21665;40.108;18.302;2023-09-18T05:40:43;20.23;;;18.48;;
35562;SDS011;21665;40.108;18.302;2023-09-18T05:43:10;20.45;;;19.05;;
35562;SDS011;21665;40.108;18.302;2023-09-18T05:45:37;20.63;;;19.13;;
35562;SDS011;21665;40.108;18.302;2023-09-18T05:48:05;23.20;;;20.90;;
35562;SDS011;21665;40.108;18.302;2023-09-18T05:50:32;22.25;;;20.65;;
35562;SDS011;21665;40.108;18.302;2023-09-18T05:53:01;22.30;;;20.48;;
35562;SDS011;21665;40.108;18.302;2023-09-18T05:55:38;20.40;;;18.52;;
35562;SDS011;21665;40.108;18.302;2023-09-18T05:58:05;21.00;;;19.48;;
35562;SDS011;21665;40.108;18.302;2023-09-18T06:00:33;22.58;;;20.73;;
35562;SDS011;21665;40.108;18.302;2023-09-18T06:02:59;22.15;;;20.55;;
35562;SDS011;21665;40.108;18.302;2023-09-18T06:05:26;24.42;;;22.27;;
35562;SDS011;21665;40.108;18.302;2023-09-18T06:07:53;23.63;;;21.77;;
35562;SDS011;21665;40.108;18.302;2023-09-18T06:10:19;24.63;;;22.60;;
35562;SDS011;21665;40.108;18.302;2023-09-18T06:12:46;24.08;;;22.27;;
35562;SDS011;21665;40.108;18.302;2023-09-18T06:15:13;23.70;;;21.85;;
35562;SDS011;21665;40.108;18.302;2023-09-18T06:17:41;23.98;;;21.98;;
35562;SDS011;21665;40.108;18.302;2023-09-18T06:20:09;23.90;;;22.08;;
35562;SDS011;21665;40.108;18.302;2023-09-18T06:22:37;24.45;;;22.33;;
35562;SDS011;21665;40.108;18.302;2023-09-18T11:04:19;30.55;;;28.05;;
35562;SDS011;21665;40.108;18.302;2023-09-18T11:09:20;31.95;;;28.55;;
35562;SDS011;21665;40.108;18.302;2023-09-18T11:14:49;30.55;;;27.88;;
35562;SDS011;21665;40.108;18.302;2023-09-18T11:17:32;30.40;;;27.90;;
35562;SDS011;21665;40.108;18.302;2023-09-18T11:20:16;30.25;;;27.42;;
35562;SDS011;21665;40.108;18.302;2023-09-18T11:22:47;29.77;;;27.08;;
35562;SDS011;21665;40.108;18.302;2023-09-18T11:25:41;30.00;;;27.25;;
35562;SDS011;21665;40.108;18.302;2023-09-18T11:28:14;29.60;;;27.02;;
35562;SDS011;21665;40.108;18.302;2023-09-18T11:30:52;29.33;;;26.85;;
35562;SDS011;21665;40.108;18.302;2023-09-18T11:33:34;28.98;;;26.95;;
35562;SDS011;21665;40.108;18.302;2023-09-18T11:36:03;30.58;;;27.45;;
35562;SDS011;21665;40.108;18.302;2023-09-18T11:38:33;29.48;;;26.67;;
35562;SDS011;21665;40.108;18.302;2023-09-18T11:41:18;28.77;;;26.48;;
35562;SDS011;21665;40.108;18.302;2023-09-18T11:43:51;30.52;;;27.58;;
35562;SDS011;21665;40.108;18.302;2023-09-18T11:46:19;29.67;;;27.20;;
35562;SDS011;21665;40.108;18.302;2023-09-18T11:48:48;29.77;;;27.10;;
35562;SDS011;21665;40.108;18.302;2023-09-18T11:51:22;31.42;;;28.17;;
35562;SDS011;21665;40.108;18.302;2023-09-18T11:53:49;29.27;;;26.90;;
35562;SDS011;21665;40.108;18.302;2023-09-18T11:56:21;30.02;;;27.23;;
35562;SDS011;21665;40.108;18.302;2023-09-18T11:58:48;29.65;;;27.05;;
35562;SDS011;21665;40.108;18.302;2023-09-18T12:01:17;30.00;;;26.83;;
35562;SDS011;21665;40.108;18.302;2023-09-18T12:03:44;29.83;;;26.88;;
35562;SDS011;21665;40.108;18.302;2023-09-18T12:06:10;30.20;;;27.42;;
35562;SDS011;21665;40.108;18.302;2023-09-18T12:08:41;30.48;;;27.55;;
35562;SDS011;21665;40.108;18.302;2023-09-18T12:11:08;29.77;;;27.17;;
35562;SDS011;21665;40.108;18.302;2023-09-18T12:13:34;30.80;;;27.80;;
35562;SDS011;21665;40.108;18.302;2023-09-18T12:16:01;30.65;;;27.90;;
35562;SDS011;21665;40.108;18.302;2023-09-18T12:18:32;30.35;;;27.48;;
35562;SDS011;21665;40.108;18.302;2023-09-18T12:21:01;30.70;;;27.60;;
35562;SDS011;21665;40.108;18.302;2023-09-18T12:23:39;29.83;;;27.23;;
35562;SDS011;21665;40.108;18.302;2023-09-18T12:26:10;30.98;;;27.75;;
35562;SDS011;21665;40.108;18.302;2023-09-18T12:28:47;30.75;;;27.83;;
35562;SDS011;21665;40.108;18.302;2023-09-18T12:31:16;30.17;;;27.42;;
35562;SDS011;21665;40.108;18.302;2023-09-18T12:34:29;31.42;;;28.38;;
35562;SDS011;21665;40.108;18.302;2023-09-18T12:37:03;30.58;;;27.52;;
35562;SDS011;21665;40.108;18.302;2023-09-18T12:39:32;30.00;;;27.27;;
35562;SDS011;21665;40.108;18.302;2023-09-18T12:42:00;30.90;;;28.20;;
35562;SDS011;21665;40.108;18.302;2023-09-18T12:44:27;32.05;;;28.70;;
35562;SDS011;21665;40.108;18.302;2023-09-18T12:46:53;31.00;;;27.88;;
35562;SDS011;21665;40.108;18.302;2023-09-18T12:49:20;30.38;;;27.35;;
35562;SDS011;21665;40.108;18.302;2023-09-18T12:51:57;31.35;;;27.85;;
35562;SDS011;21665;40.108;18.302;2023-09-18T12:57:07;31.52;;;28.40;;
35562;SDS011;21665;40.108;18.302;2023-09-18T12:59:36;31.90;;;28.73;;
35562;SDS011;21665;40.108;18.302;2023-09-18T13:02:03;31.65;;;28.75;;
35562;SDS011;21665;40.108;18.302;2023-09-18T13:04:34;31.80;;;28.73;;
35562;SDS011;21665;40.108;18.302;2023-09-18T13:07:12;31.20;;;28.40;;
35562;SDS011;21665;40.108;18.302;2023-09-18T13:09:40;31.33;;;27.80;;
35562;SDS011;21665;40.108;18.302;2023-09-18T13:12:07;31.83;;;28.48;;
35562;SDS011;21665;40.108;18.302;2023-09-18T13:17:40;30.38;;;27.35;;
35562;SDS011;21665;40.108;18.302;2023-09-18T13:20:12;30.67;;;27.83;;
35562;SDS011;21665;40.108;18.302;2023-09-18T13:22:41;30.75;;;27.80;;
35562;SDS011;21665;40.108;18.302;2023-09-18T13:25:08;31.42;;;28.15;;
35562;SDS011;21665;40.108;18.302;2023-09-18T13:27:38;31.05;;;28.08;;
35562;SDS011;21665;40.108;18.302;2023-09-18T13:30:08;31.05;;;28.25;;
35562;SDS011;21665;40.108;18.302;2023-09-18T13:32:35;31.42;;;27.98;;
35562;SDS011;21665;40.108;18.302;2023-09-18T13:35:05;31.75;;;28.65;;
35562;SDS011;21665;40.108;18.302;2023-09-18T13:37:32;31.40;;;28.38;;
35562;SDS011;21665;40.108;18.302;2023-09-18T13:39:59;31.60;;;28.55;;
35562;SDS011;21665;40.108;18.302;2023-09-18T13:42:32;33.35;;;28.67;;
35562;SDS011;21665;40.108;18.302;2023-09-18T13:44:58;30.95;;;28.35;;
35562;SDS011;21665;40.108;18.302;2023-09-18T13:47:26;33.47;;;29.90;;
35562;SDS011;21665;40.108;18.302;2023-09-18T13:49:53;32.92;;;29.55;;
35562;SDS011;21665;40.108;18.302;2023-09-18T13:52:26;33.25;;;30.20;;
35562;SDS011;21665;40.108;18.302;2023-09-18T13:54:53;31.65;;;28.55;;
35562;SDS011;21665;40.108;18.302;2023-09-18T13:57:19;33.35;;;29.08;;
35562;SDS011;21665;40.108;18.302;2023-09-18T13:59:47;32.10;;;29.27;;
35562;SDS011;21665;40.108;18.302;2023-09-18T14:02:15;35.28;;;29.92;;
35562;SDS011;21665;40.108;18.302;2023-09-18T14:04:42;34.20;;;30.40;;
35562;SDS011;21665;40.108;18.302;2023-09-18T14:07:09;32.70;;;29.70;;
35562;SDS011;21665;40.108;18.302;2023-09-18T14:09:37;32.45;;;29.17;;
35562;SDS011;21665;40.108;18.302;2023-09-18T14:12:04;36.83;;;29.08;;
35562;SDS011;21665;40.108;18.302;2023-09-18T14:14:35;30.73;;;28.00;;
35562;SDS011;21665;40.108;18.302;2023-09-18T14:17:02;33.80;;;28.95;;
35562;SDS011;21665;40.108;18.302;2023-09-18T14:19:30;31.35;;;28.48;;
35562;SDS011;21665;40.108;18.302;2023-09-18T14:21:57;31.38;;;28.73;;
35562;SDS011;21665;40.108;18.302;2023-09-18T14:24:29;31.85;;;28.67;;
35562;SDS011;21665;40.108;18.302;2023-09-18T14:26:57;30.52;;;27.95;;
35562;SDS011;21665;40.108;18.302;2023-09-18T14:29:23;30.98;;;27.90;;
35562;SDS011;21665;40.108;18.302;2023-09-18T14:31:50;31.40;;;28.27;;
35562;SDS011;21665;40.108;18.302;2023-09-18T14:34:24;30.75;;;28.10;;
35562;SDS011;21665;40.108;18.302;2023-09-18T14:36:53;31.73;;;28.45;;
35562;SDS011;21665;40.108;18.302;2023-09-18T14:39:20;34.13;;;29.33;;
35562;SDS011;21665;40.108;18.302;2023-09-18T14:41:47;33.20;;;29.48;;
35562;SDS011;21665;40.108;18.302;2023-09-18T14:44:14;33.97;;;29.48;;
35562;SDS011;21665;40.108;18.302;2023-09-18T14:46:41;32.20;;;29.30;;
35562;SDS011;21665;40.108;18.302;2023-09-18T14:49:08;32.85;;;29.65;;
35562;SDS011;21665;40.108;18.302;2023-09-18T14:51:36;31.95;;;28.58;;
35562;SDS011;21665;40.108;18.302;2023-09-18T14:54:02;32.72;;;29.00;;
35562;SDS011;21665;40.108;18.302;2023-09-18T14:56:30;33.67;;;29.15;;
35562;SDS011;21665;40.108;18.302;2023-09-18T14:58:57;32.17;;;28.70;;
35562;SDS011;21665;40.108;18.302;2023-09-18T15:01:23;33.10;;;29.80;;
35562;SDS011;21665;40.108;18.302;2023-09-18T15:03:50;32.58;;;29.27;;
35562;SDS011;21665;40.108;18.302;2023-09-18T15:06:17;32.95;;;29.48;;
35562;SDS011;21665;40.108;18.302;2023-09-18T15:08:45;32.65;;;29.00;;
35562;SDS011;21665;40.108;18.302;2023-09-18T15:13:53;33.42;;;30.05;;
35562;SDS011;21665;40.108;18.302;2023-09-18T15:16:29;32.15;;;29.30;;
35562;SDS011;21665;40.108;18.302;2023-09-18T15:18:56;32.17;;;28.77;;
35562;SDS011;21665;40.108;18.302;2023-09-18T15:21:27;37.72;;;29.60;;
35562;SDS011;21665;40.108;18.302;2023-09-18T15:23:53;32.35;;;29.23;;
35562;SDS011;21665;40.108;18.302;2023-09-18T15:26:20;32.55;;;29.33;;
35562;SDS011;21665;40.108;18.302;2023-09-18T15:28:46;30.50;;;27.83;;
35562;SDS011;21665;40.108;18.302;2023-09-18T15:31:13;31.60;;;28.45;;
35562;SDS011;21665;40.108;18.302;2023-09-18T15:33:40;35.28;;;29.38;;
35562;SDS011;21665;40.108;18.302;2023-09-18T15:36:07;32.60;;;29.17;;
35562;SDS011;21665;40.108;18.302;2023-09-18T15:38:33;39.40;;;29.00;;
35562;SDS011;21665;40.108;18.302;2023-09-18T15:40:59;33.35;;;29.67;;
35562;SDS011;21665;40.108;18.302;2023-09-18T15:43:26;45.20;;;30.05;;
35562;SDS011;21665;40.108;18.302;2023-09-18T15:45:54;35.97;;;28.92;;
35562;SDS011;21665;40.108;18.302;2023-09-18T15:48:22;36.92;;;30.10;;
35562;SDS011;21665;40.108;18.302;2023-09-18T15:50:50;35.40;;;30.10;;
35562;SDS011;21665;40.108;18.302;2023-09-18T15:53:19;39.03;;;31.15;;
35562;SDS011;21665;40.108;18.302;2023-09-18T15:55:47;30.58;;;27.38;;
35562;SDS011;21665;40.108;18.302;2023-09-18T15:58:13;38.83;;;28.70;;
35562;SDS011;21665;40.108;18.302;2023-09-18T16:00:40;30.55;;;27.45;;
35562;SDS011;21665;40.108;18.302;2023-09-18T16:03:08;31.13;;;27.70;;
35562;SDS011;21665;40.108;18.302;2023-09-18T16:05:35;31.00;;;27.40;;
35562;SDS011;21665;40.108;18.302;2023-09-18T16:08:01;30.27;;;27.02;;
35562;SDS011;21665;40.108;18.302;2023-09-18T16:10:29;29.52;;;26.58;;
35562;SDS011;21665;40.108;18.302;2023-09-18T16:12:57;29.60;;;26.88;;
35562;SDS011;21665;40.108;18.302;2023-09-18T16:15:24;29.33;;;26.23;;
35562;SDS011;21665;40.108;18.302;2023-09-18T16:17:56;28.77;;;26.30;;
35562;SDS011;21665;40.108;18.302;2023-09-18T16:20:23;28.08;;;25.88;;
35562;SDS011;21665;40.108;18.302;2023-09-18T16:22:49;28.33;;;26.02;;
35562;SDS011;21665;40.108;18.302;2023-09-18T16:25:16;28.65;;;26.25;;
35562;SDS011;21665;40.108;18.302;2023-09-18T16:27:42;28.58;;;26.20;;
35562;SDS011;21665;40.108;18.302;2023-09-18T16:30:08;28.33;;;25.65;;
35562;SDS011;21665;40.108;18.302;2023-09-18T16:32:37;28.10;;;25.45;;
35562;SDS011;21665;40.108;18.302;2023-09-18T16:35:06;27.38;;;25.42;;
35562;SDS011;21665;40.108;18.302;2023-09-18T16:37:34;28.35;;;26.08;;
35562;SDS011;21665;40.108;18.302;2023-09-18T16:40:01;28.25;;;26.02;;
35562;SDS011;21665;40.108;18.302;2023-09-18T16:42:29;28.92;;;26.20;;
35562;SDS011;21665;40.108;18.302;2023-09-18T16:45:01;28.17;;;25.75;;
35562;SDS011;21665;40.108;18.302;2023-09-18T16:47:27;28.30;;;25.70;;
35562;SDS011;21665;40.108;18.302;2023-09-18T16:49:56;28.60;;;25.95;;
35562;SDS011;21665;40.108;18.302;2023-09-18T16:52:23;27.80;;;25.33;;
35562;SDS011;21665;40.108;18.302;2023-09-18T16:54:49;27.90;;;25.38;;
35562;SDS011;21665;40.108;18.302;2023-09-18T16:57:16;27.77;;;25.42;;
35562;SDS011;21665;40.108;18.302;2023-09-18T16:59:43;28.02;;;25.42;;
35562;SDS011;21665;40.108;18.302;2023-09-18T17:02:13;27.33;;;25.27;;
35562;SDS011;21665;40.108;18.302;2023-09-18T17:04:40;28.15;;;25.38;;
35562;SDS011;21665;40.108;18.302;2023-09-18T17:07:07;27.42;;;25.17;;
35562;SDS011;21665;40.108;18.302;2023-09-18T17:09:36;26.27;;;24.33;;
35562;SDS011;21665;40.108;18.302;2023-09-18T17:12:10;27.63;;;25.08;;
35562;SDS011;21665;40.108;18.302;2023-09-18T17:14:39;27.83;;;25.38;;
35562;SDS011;21665;40.108;18.302;2023-09-18T17:17:11;28.05;;;25.60;;
35562;SDS011;21665;40.108;18.302;2023-09-18T17:19:47;28.23;;;25.60;;
35562;SDS011;21665;40.108;18.302;2023-09-18T17:27:11;28.17;;;26.10;;
35562;SDS011;21665;40.108;18.302;2023-09-18T17:29:42;32.60;;;29.63;;
35562;SDS011;21665;40.108;18.302;2023-09-18T17:32:12;28.30;;;26.00;;
35562;SDS011;21665;40.108;18.302;2023-09-18T17:34:38;28.63;;;26.10;;
35562;SDS011;21665;40.108;18.302;2023-09-18T17:37:05;28.25;;;25.90;;
35562;SDS011;21665;40.108;18.302;2023-09-18T17:39:33;27.52;;;24.95;;
35562;SDS011;21665;40.108;18.302;2023-09-18T17:42:00;27.05;;;24.65;;
35562;SDS011;21665;40.108;18.302;2023-09-18T17:44:27;26.40;;;24.55;;
35562;SDS011;21665;40.108;18.302;2023-09-18T17:46:54;27.17;;;25.08;;
35562;SDS011;21665;40.108;18.302;2023-09-18T17:55:42;27.75;;;25.15;;
35562;SDS011;21665;40.108;18.302;2023-09-18T17:58:11;28.35;;;25.90;;
35562;SDS011;21665;40.108;18.302;2023-09-18T18:00:38;27.65;;;25.42;;
35562;SDS011;21665;40.108;18.302;2023-09-18T18:03:07;28.08;;;25.52;;
35562;SDS011;21665;40.108;18.302;2023-09-18T18:05:35;27.83;;;25.30;;
35562;SDS011;21665;40.108;18.302;2023-09-18T18:08:02;27.05;;;24.85;;
35562;SDS011;21665;40.108;18.302;2023-09-18T18:10:30;28.10;;;25.42;;
35562;SDS011;21665;40.108;18.302;2023-09-18T18:12:56;27.95;;;25.58;;
35562;SDS011;21665;40.108;18.302;2023-09-18T18:15:23;27.05;;;24.85;;
35562;SDS011;21665;40.108;18.302;2023-09-18T18:17:51;27.10;;;24.63;;
35562;SDS011;21665;40.108;18.302;2023-09-18T18:20:18;27.30;;;24.88;;
35562;SDS011;21665;40.108;18.302;2023-09-18T18:22:45;27.38;;;24.65;;
35562;SDS011;21665;40.108;18.302;2023-09-18T18:25:12;28.02;;;25.55;;
35562;SDS011;21665;40.108;18.302;2023-09-18T18:27:48;26.80;;;24.60;;
35562;SDS011;21665;40.108;18.302;2023-09-18T18:30:20;26.85;;;24.55;;
35562;SDS011;21665;40.108;18.302;2023-09-18T18:32:46;27.73;;;25.15;;
35562;SDS011;21665;40.108;18.302;2023-09-18T18:35:13;28.13;;;25.70;;
35562;SDS011;21665;40.108;18.302;2023-09-18T18:37:44;26.35;;;24.02;;
35562;SDS011;21665;40.108;18.302;2023-09-18T18:40:11;27.83;;;24.95;;
35562;SDS011;21665;40.108;18.302;2023-09-18T18:42:40;26.27;;;23.98;;
35562;SDS011;21665;40.108;18.302;2023-09-18T18:45:07;27.77;;;25.30;;
35562;SDS011;21665;40.108;18.302;2023-09-18T18:47:33;28.95;;;26.05;;
35562;SDS011;21665;40.108;18.302;2023-09-18T18:50:00;27.08;;;24.27;;
35562;SDS011;21665;40.108;18.302;2023-09-18T18:52:26;27.83;;;25.02;;
35562;SDS011;21665;40.108;18.302;2023-09-18T18:54:54;26.92;;;24.48;;
35562;SDS011;21665;40.108;18.302;2023-09-18T18:57:22;27.88;;;25.00;;
35562;SDS011;21665;40.108;18.302;2023-09-18T18:59:52;27.35;;;25.00;;
35562;SDS011;21665;40.108;18.302;2023-09-18T19:02:20;28.17;;;25.58;;
35562;SDS011;21665;40.108;18.302;2023-09-18T19:04:50;29.08;;;25.67;;
35562;SDS011;21665;40.108;18.302;2023-09-18T19:07:17;27.70;;;25.40;;
35562;SDS011;21665;40.108;18.302;2023-09-18T19:09:47;29.52;;;26.35;;
35562;SDS011;21665;40.108;18.302;2023-09-18T19:12:15;29.50;;;26.50;;
35562;SDS011;21665;40.108;18.302;2023-09-18T19:14:41;29.77;;;26.65;;
35562;SDS011;21665;40.108;18.302;2023-09-18T19:17:08;29.98;;;27.20;;
35562;SDS011;21665;40.108;18.302;2023-09-18T19:19:34;30.42;;;27.17;;
35562;SDS011;21665;40.108;18.302;2023-09-18T19:22:00;29.40;;;26.50;;
35562;SDS011;21665;40.108;18.302;2023-09-18T19:24:27;29.38;;;26.75;;
35562;SDS011;21665;40.108;18.302;2023-09-18T19:26:54;29.23;;;26.73;;
35562;SDS011;21665;40.108;18.302;2023-09-18T19:29:20;30.20;;;27.20;;
35562;SDS011;21665;40.108;18.302;2023-09-18T19:31:47;29.13;;;26.42;;
35562;SDS011;21665;40.108;18.302;2023-09-18T19:34:15;27.92;;;24.92;;
35562;SDS011;21665;40.108;18.302;2023-09-18T19:36:42;29.90;;;25.58;;
35562;SDS011;21665;40.108;18.302;2023-09-18T19:39:10;28.48;;;25.58;;
35562;SDS011;21665;40.108;18.302;2023-09-18T19:41:37;28.10;;;24.83;;
35562;SDS011;21665;40.108;18.302;2023-09-18T19:44:04;28.80;;;25.85;;
35562;SDS011;21665;40.108;18.302;2023-09-18T19:46:31;29.27;;;26.13;;
35562;SDS011;21665;40.108;18.302;2023-09-18T19:49:01;30.13;;;26.17;;
35562;SDS011;21665;40.108;18.302;2023-09-18T19:51:31;30.80;;;25.73;;
35562;SDS011;21665;40.108;18.302;2023-09-18T19:53:58;29.48;;;26.08;;
35562;SDS011;21665;40.108;18.302;2023-09-18T19:56:25;32.92;;;25.98;;
35562;SDS011;21665;40.108;18.302;2023-09-18T19:58:54;28.13;;;25.15;;
35562;SDS011;21665;40.108;18.302;2023-09-18T20:01:21;30.60;;;24.27;;
35562;SDS011;21665;40.108;18.302;2023-09-18T20:03:50;27.40;;;24.55;;
35562;SDS011;21665;40.108;18.302;2023-09-18T20:06:17;27.20;;;24.33;;
35562;SDS011;21665;40.108;18.302;2023-09-18T20:08:43;28.27;;;25.23;;
35562;SDS011;21665;40.108;18.302;2023-09-18T20:11:10;28.10;;;25.10;;
35562;SDS011;21665;40.108;18.302;2023-09-18T20:13:37;27.90;;;24.38;;
35562;SDS011;21665;40.108;18.302;2023-09-18T20:16:04;27.23;;;24.42;;
35562;SDS011;21665;40.108;18.302;2023-09-18T20:18:31;26.45;;;23.75;;
35562;SDS011;21665;40.108;18.302;2023-09-18T20:20:58;26.63;;;23.92;;
35562;SDS011;21665;40.108;18.302;2023-09-18T20:23:27;27.10;;;24.23;;
35562;SDS011;21665;40.108;18.302;2023-09-18T20:25:55;26.35;;;23.80;;
35562;SDS011;21665;40.108;18.302;2023-09-18T20:28:22;25.00;;;22.30;;
35562;SDS011;21665;40.108;18.302;2023-09-18T20:30:52;29.65;;;22.80;;
35562;SDS011;21665;40.108;18.302;2023-09-18T20:33:18;24.73;;;21.90;;
35562;SDS011;21665;40.108;18.302;2023-09-18T20:35:45;24.92;;;22.55;;
35562;SDS011;21665;40.108;18.302;2023-09-18T20:38:11;24.48;;;21.98;;
35562;SDS011;21665;40.108;18.302;2023-09-18T20:40:37;23.98;;;21.70;;
35562;SDS011;21665;40.108;18.302;2023-09-18T20:43:05;24.10;;;21.77;;
35562;SDS011;21665;40.108;18.302;2023-09-18T20:45:33;26.58;;;22.33;;
35562;SDS011;21665;40.108;18.302;2023-09-18T20:48:00;27.30;;;21.30;;
35562;SDS011;21665;40.108;18.302;2023-09-18T20:50:27;23.60;;;21.50;;
35562;SDS011;21665;40.108;18.302;2023-09-18T20:52:54;26.55;;;21.98;;
35562;SDS011;21665;40.108;18.302;2023-09-18T20:55:21;24.25;;;21.92;;
35562;SDS011;21665;40.108;18.302;2023-09-18T20:57:47;28.02;;;21.35;;
35562;SDS011;21665;40.108;18.302;2023-09-18T21:00:14;27.10;;;20.88;;
35562;SDS011;21665;40.108;18.302;2023-09-18T21:02:43;23.77;;;20.63;;
35562;SDS011;21665;40.108;18.302;2023-09-18T21:05:13;30.17;;;21.45;;
35562;SDS011;21665;40.108;18.302;2023-09-18T21:07:43;25.85;;;19.83;;
35562;SDS011;21665;40.108;18.302;2023-09-18T21:10:10;21.83;;;19.52;;
35562;SDS011;21665;40.108;18.302;2023-09-18T21:12:37;21.88;;;19.77;;
35562;SDS011;21665;40.108;18.302;2023-09-18T21:15:04;23.77;;;19.45;;
35562;SDS011;21665;40.108;18.302;2023-09-18T21:17:33;21.27;;;19.17;;
35562;SDS011;21665;40.108;18.302;2023-09-18T21:19:59;22.40;;;19.70;;
35562;SDS011;21665;40.108;18.302;2023-09-18T21:22:27;23.02;;;20.30;;
35562;SDS011;21665;40.108;18.302;2023-09-18T21:24:54;23.85;;;20.02;;
35562;SDS011;21665;40.108;18.302;2023-09-18T21:27:23;22.70;;;19.65;;
35562;SDS011;21665;40.108;18.302;2023-09-18T21:29:56;23.20;;;20.95;;
35562;SDS011;21665;40.108;18.302;2023-09-18T21:32:24;21.83;;;19.77;;
35562;SDS011;21665;40.108;18.302;2023-09-18T21:34:51;28.10;;;20.27;;
35562;SDS011;21665;40.108;18.302;2023-09-18T21:37:18;23.88;;;19.95;;
35562;SDS011;21665;40.108;18.302;2023-09-18T21:39:44;29.55;;;20.63;;
35562;SDS011;21665;40.108;18.302;2023-09-18T21:42:11;24.90;;;20.60;;
35562;SDS011;21665;40.108;18.302;2023-09-18T21:44:38;30.38;;;20.52;;
35562;SDS011;21665;40.108;18.302;2023-09-18T21:47:05;24.75;;;19.55;;
35562;SDS011;21665;40.108;18.302;2023-09-18T21:49:37;24.85;;;20.15;;
35562;SDS011;21665;40.108;18.302;2023-09-18T21:52:06;22.92;;;20.70;;
35562;SDS011;21665;40.108;18.302;2023-09-18T21:54:33;22.27;;;19.95;;
35562;SDS011;21665;40.108;18.302;2023-09-18T21:57:00;28.77;;;20.75;;
35562;SDS011;21665;40.108;18.302;2023-09-18T21:59:26;23.92;;;20.40;;
35562;SDS011;21665;40.108;18.302;2023-09-18T22:01:53;24.92;;;21.10;;
35562;SDS011;21665;40.108;18.302;2023-09-18T22:04:20;23.10;;;20.48;;
35562;SDS011;21665;40.108;18.302;2023-09-18T22:06:47;22.25;;;20.02;;
35562;SDS011;21665;40.108;18.302;2023-09-18T22:09:14;23.05;;;20.48;;
35562;SDS011;21665;40.108;18.302;2023-09-18T22:11:43;23.10;;;20.63;;
35562;SDS011;21665;40.108;18.302;2023-09-18T22:14:10;22.33;;;20.35;;
35562;SDS011;21665;40.108;18.302;2023-09-18T22:16:40;22.75;;;20.35;;
35562;SDS011;21665;40.108;18.302;2023-09-18T22:19:07;22.58;;;20.23;;
35562;SDS011;21665;40.108;18.302;2023-09-18T22:21:34;25.27;;;20.90;;
35562;SDS011;21665;40.108;18.302;2023-09-18T22:24:04;22.23;;;19.92;;
35562;SDS011;21665;40.108;18.302;2023-09-18T22:26:31;23.42;;;20.77;;
35562;SDS011;21665;40.108;18.302;2023-09-18T22:28:57;23.83;;;20.88;;
35562;SDS011;21665;40.108;18.302;2023-09-18T22:31:24;26.98;;;20.98;;
35562;SDS011;21665;40.108;18.302;2023-09-18T22:33:51;28.50;;;21.67;;
35562;SDS011;21665;40.108;18.302;2023-09-18T22:36:18;29.75;;;21.00;;
35562;SDS011;21665;40.108;18.302;2023-09-18T22:55:37;22.38;;;19.80;;
35562;SDS011;21665;40.108;18.302;2023-09-18T22:58:06;27.30;;;20.65;;
35562;SDS011;21665;40.108;18.302;2023-09-18T23:00:35;22.00;;;19.80;;
35562;SDS011;21665;40.108;18.302;2023-09-18T23:03:03;29.17;;;21.58;;
35562;SDS011;21665;40.108;18.302;2023-09-18T23:05:37;24.92;;;19.77;;
35562;SDS011;21665;40.108;18.302;2023-09-18T23:08:08;21.15;;;19.00;;
35562;SDS011;21665;40.108;18.302;2023-09-18T23:10:40;22.08;;;19.77;;
35562;SDS011;21665;40.108;18.302;2023-09-18T23:13:08;25.10;;;19.77;;
35562;SDS011;21665;40.108;18.302;2023-09-18T23:15:37;23.00;;;20.33;;
35562;SDS011;21665;40.108;18.302;2023-09-18T23:18:04;23.58;;;20.30;;
35562;SDS011;21665;40.108;18.302;2023-09-18T23:20:31;24.45;;;19.65;;
35562;SDS011;21665;40.108;18.302;2023-09-18T23:23:01;31.48;;;20.50;;
35562;SDS011;21665;40.108;18.302;2023-09-18T23:25:28;24.38;;;20.33;;
35562;SDS011;21665;40.108;18.302;2023-09-18T23:27:58;23.73;;;20.65;;
35562;SDS011;21665;40.108;18.302;2023-09-18T23:30:25;28.30;;;20.65;;
35562;SDS011;21665;40.108;18.302;2023-09-18T23:32:56;28.48;;;21.42;;
35562;SDS011;21665;40.108;18.302;2023-09-18T23:35:25;22.95;;;20.50;;
35562;SDS011;21665;40.108;18.302;2023-09-18T23:37:53;22.33;;;20.08;;
35562;SDS011;21665;40.108;18.302;2023-09-18T23:40:32;29.92;;;20.48;;
35562;SDS011;21665;40.108;18.302;2023-09-18T23:43:02;25.23;;;19.98;;
35562;SDS011;21665;40.108;18.302;2023-09-18T23:45:37;26.27;;;20.00;;
35562;SDS011;21665;40.108;18.302;2023-09-18T23:48:18;22.73;;;20.35;;
35562;SDS011;21665;40.108;18.302;2023-09-18T23:50:47;25.90;;;20.70;;
35562;SDS011;21665;40.108;18.302;2023-09-18T23:53:15;32.88;;;20.52;;
35562;SDS011;21665;40.108;18.302;2023-09-18T23:55:47;29.38;;;20.15;;
35562;SDS011;21665;40.108;18.302;2023-09-18T23:58:24;26.08;;;20.67;;
